Aviation Digital Data Service (ADDS)

Output produced by METARs form (1131 UTC 25 June 2019)
found at http://www.aviationweather.gov/metar/data/
 
Forecast for: LESA (SALAMANCA (CIV/M, ES)
Text: TAF LESA 251100Z 2512/2612 25010KT 9999 SCT045 TX30/2515Z TN16/2605Z
Forecast period: 1200 to 1800 UTC 25 June 2019
Forecast type: FROM: standard forecast or significant change
Winds: from the WSW (250 degrees) at 12 MPH (10 knots; 5.1 m/s)
Visibility: 6 or more miles 10+ km)
Ceiling: at least 12,000 feet AGL
Clouds: scattered clouds at 4500 feet AGL
Weather: no significant weather forecast for this period
Text: BECMG 2518/2520 VRB04KT
Forecast period: 1800 UTC 25 June 2019 to 0800 UTC 26 June 2019
Forecast type: BECOMING: Conditions expected to become as follows by 2000 UTC 25 June 2019
Winds: variable direction winds at 5 MPH (4 knots; 2.1 m/s)
Visibility: 6 or more miles 10+ km)
Ceiling: at least 12,000 feet AGL
Clouds: scattered clouds at 4500 feet AGL
Weather: no significant weather forecast for this period
Text: BECMG 2608/2610 22012KT
Forecast period: 0800 to 1200 UTC 26 June 2019
Forecast type: BECOMING: Conditions expected to become as follows by 1000 UTC 26 June 2019
Winds: from the SW (220 degrees) at 14 MPH (12 knots; 6.2 m/s)
Visibility: 6 or more miles 10+ km)
Ceiling: at least 12,000 feet AGL
Clouds: scattered clouds at 4500 feet AGL
Weather: no significant weather forecast for this period